sensor_id;sensor_type;location;lat;lon;timestamp;temperature;humidity
13928;DHT22;7036;50.834;4.718;2023-07-31T00:00:00;23.90;71.10
13928;DHT22;7036;50.834;4.718;2023-07-31T00:02:27;23.90;71.20
13928;DHT22;7036;50.834;4.718;2023-07-31T00:04:54;23.90;71.30
13928;DHT22;7036;50.834;4.718;2023-07-31T00:07:20;23.90;71.40
13928;DHT22;7036;50.834;4.718;2023-07-31T00:09:47;24.00;71.10
13928;DHT22;7036;50.834;4.718;2023-07-31T00:12:14;23.90;71.80
13928;DHT22;7036;50.834;4.718;2023-07-31T00:14:41;24.00;71.60
13928;DHT22;7036;50.834;4.718;2023-07-31T00:17:08;24.00;71.60
13928;DHT22;7036;50.834;4.718;2023-07-31T00:19:35;23.90;71.10
13928;DHT22;7036;50.834;4.718;2023-07-31T00:22:02;23.90;71.10
13928;DHT22;7036;50.834;4.718;2023-07-31T00:24:29;23.90;71.10
13928;DHT22;7036;50.834;4.718;2023-07-31T00:26:56;24.00;71.40
13928;DHT22;7036;50.834;4.718;2023-07-31T00:29:23;23.90;71.40
13928;DHT22;7036;50.834;4.718;2023-07-31T00:31:50;24.00;71.60
13928;DHT22;7036;50.834;4.718;2023-07-31T00:34:17;23.90;71.70
13928;DHT22;7036;50.834;4.718;2023-07-31T00:36:44;24.00;71.80
13928;DHT22;7036;50.834;4.718;2023-07-31T00:39:11;24.00;71.80
13928;DHT22;7036;50.834;4.718;2023-07-31T00:41:38;24.00;71.70
13928;DHT22;7036;50.834;4.718;2023-07-31T00:44:05;23.90;71.40
13928;DHT22;7036;50.834;4.718;2023-07-31T00:46:32;24.00;71.60
13928;DHT22;7036;50.834;4.718;2023-07-31T00:48:58;23.90;71.50
13928;DHT22;7036;50.834;4.718;2023-07-31T00:51:25;23.90;71.60
13928;DHT22;7036;50.834;4.718;2023-07-31T00:53:52;23.90;71.60
13928;DHT22;7036;50.834;4.718;2023-07-31T00:56:19;23.90;71.60
13928;DHT22;7036;50.834;4.718;2023-07-31T00:58:46;23.90;71.60
13928;DHT22;7036;50.834;4.718;2023-07-31T01:01:13;23.90;71.60
13928;DHT22;7036;50.834;4.718;2023-07-31T01:03:40;23.90;71.70
13928;DHT22;7036;50.834;4.718;2023-07-31T01:06:30;23.90;71.80
13928;DHT22;7036;50.834;4.718;2023-07-31T01:12:02;23.90;72.00
13928;DHT22;7036;50.834;4.718;2023-07-31T01:14:14;24.00;72.00
13928;DHT22;7036;50.834;4.718;2023-07-31T01:16:41;23.90;72.00
13928;DHT22;7036;50.834;4.718;2023-07-31T01:19:07;23.90;72.10
13928;DHT22;7036;50.834;4.718;2023-07-31T01:24:28;23.90;73.10
13928;DHT22;7036;50.834;4.718;2023-07-31T01:27:24;23.90;72.60
13928;DHT22;7036;50.834;4.718;2023-07-31T01:30:13;23.90;72.50
13928;DHT22;7036;50.834;4.718;2023-07-31T01:32:00;23.90;72.60
13928;DHT22;7036;50.834;4.718;2023-07-31T01:34:26;23.90;72.60
13928;DHT22;7036;50.834;4.718;2023-07-31T01:36:53;23.90;72.50
13928;DHT22;7036;50.834;4.718;2023-07-31T01:39:20;23.90;72.60
13928;DHT22;7036;50.834;4.718;2023-07-31T01:41:46;23.90;72.60
13928;DHT22;7036;50.834;4.718;2023-07-31T01:44:13;23.90;72.70
13928;DHT22;7036;50.834;4.718;2023-07-31T01:46:40;23.90;72.60
13928;DHT22;7036;50.834;4.718;2023-07-31T01:49:07;23.90;72.70
13928;DHT22;7036;50.834;4.718;2023-07-31T01:51:34;23.90;72.80
13928;DHT22;7036;50.834;4.718;2023-07-31T01:54:01;23.80;72.80
13928;DHT22;7036;50.834;4.718;2023-07-31T01:56:28;23.90;72.90
13928;DHT22;7036;50.834;4.718;2023-07-31T01:58:55;23.90;72.90
13928;DHT22;7036;50.834;4.718;2023-07-31T02:01:22;23.90;73.00
13928;DHT22;7036;50.834;4.718;2023-07-31T02:03:49;23.90;73.10
13928;DHT22;7036;50.834;4.718;2023-07-31T02:06:15;23.90;73.10
13928;DHT22;7036;50.834;4.718;2023-07-31T02:08:42;23.90;73.10
13928;DHT22;7036;50.834;4.718;2023-07-31T02:11:10;23.80;73.90
13928;DHT22;7036;50.834;4.718;2023-07-31T02:13:37;23.90;73.50
13928;DHT22;7036;50.834;4.718;2023-07-31T02:16:05;23.80;74.10
13928;DHT22;7036;50.834;4.718;2023-07-31T02:18:31;23.80;73.50
13928;DHT22;7036;50.834;4.718;2023-07-31T02:20:58;23.80;73.40
13928;DHT22;7036;50.834;4.718;2023-07-31T02:23:25;23.80;73.30
13928;DHT22;7036;50.834;4.718;2023-07-31T02:25:52;23.80;73.80
13928;DHT22;7036;50.834;4.718;2023-07-31T02:28:19;23.80;74.00
13928;DHT22;7036;50.834;4.718;2023-07-31T02:30:46;23.80;74.90
13928;DHT22;7036;50.834;4.718;2023-07-31T02:33:14;23.80;73.80
13928;DHT22;7036;50.834;4.718;2023-07-31T02:35:40;23.80;74.10
13928;DHT22;7036;50.834;4.718;2023-07-31T02:38:07;23.80;73.90
13928;DHT22;7036;50.834;4.718;2023-07-31T02:40:34;23.80;74.10
13928;DHT22;7036;50.834;4.718;2023-07-31T02:43:01;23.80;74.50
13928;DHT22;7036;50.834;4.718;2023-07-31T02:45:28;23.80;74.50
13928;DHT22;7036;50.834;4.718;2023-07-31T02:47:56;23.80;75.40
13928;DHT22;7036;50.834;4.718;2023-07-31T02:50:22;23.80;74.80
13928;DHT22;7036;50.834;4.718;2023-07-31T02:52:49;23.80;74.40
13928;DHT22;7036;50.834;4.718;2023-07-31T02:55:16;23.80;74.40
13928;DHT22;7036;50.834;4.718;2023-07-31T02:57:43;23.80;74.50
13928;DHT22;7036;50.834;4.718;2023-07-31T03:00:10;23.80;74.80
13928;DHT22;7036;50.834;4.718;2023-07-31T03:02:37;23.80;74.90
13928;DHT22;7036;50.834;4.718;2023-07-31T03:05:04;23.80;74.70
13928;DHT22;7036;50.834;4.718;2023-07-31T03:07:31;23.80;74.60
13928;DHT22;7036;50.834;4.718;2023-07-31T03:09:58;23.80;74.70
13928;DHT22;7036;50.834;4.718;2023-07-31T03:12:25;23.80;74.80
13928;DHT22;7036;50.834;4.718;2023-07-31T03:14:53;23.80;75.70
13928;DHT22;7036;50.834;4.718;2023-07-31T03:17:21;23.70;75.10
13928;DHT22;7036;50.834;4.718;2023-07-31T03:19:48;23.70;75.20
13928;DHT22;7036;50.834;4.718;2023-07-31T03:22:15;23.80;75.30
13928;DHT22;7036;50.834;4.718;2023-07-31T03:24:42;23.80;75.20
13928;DHT22;7036;50.834;4.718;2023-07-31T03:27:09;23.80;75.30
13928;DHT22;7036;50.834;4.718;2023-07-31T03:29:36;23.70;75.50
13928;DHT22;7036;50.834;4.718;2023-07-31T03:32:03;23.80;75.50
13928;DHT22;7036;50.834;4.718;2023-07-31T03:34:30;23.80;74.80
13928;DHT22;7036;50.834;4.718;2023-07-31T03:36:57;23.70;74.70
13928;DHT22;7036;50.834;4.718;2023-07-31T03:39:24;23.70;75.00
13928;DHT22;7036;50.834;4.718;2023-07-31T03:41:51;23.80;75.00
13928;DHT22;7036;50.834;4.718;2023-07-31T03:44:18;23.70;75.20
13928;DHT22;7036;50.834;4.718;2023-07-31T03:46:45;23.70;75.30
13928;DHT22;7036;50.834;4.718;2023-07-31T03:49:17;23.70;75.40
13928;DHT22;7036;50.834;4.718;2023-07-31T03:51:44;23.70;75.30
13928;DHT22;7036;50.834;4.718;2023-07-31T03:54:11;23.70;75.30
13928;DHT22;7036;50.834;4.718;2023-07-31T03:56:38;23.70;75.30
13928;DHT22;7036;50.834;4.718;2023-07-31T03:59:05;23.70;75.40
13928;DHT22;7036;50.834;4.718;2023-07-31T04:01:32;23.70;75.40
13928;DHT22;7036;50.834;4.718;2023-07-31T04:03:59;23.70;75.90
13928;DHT22;7036;50.834;4.718;2023-07-31T04:06:26;23.70;76.20
13928;DHT22;7036;50.834;4.718;2023-07-31T04:08:53;23.70;76.40
13928;DHT22;7036;50.834;4.718;2023-07-31T04:11:20;23.70;76.50
13928;DHT22;7036;50.834;4.718;2023-07-31T04:13:47;23.70;76.50
13928;DHT22;7036;50.834;4.718;2023-07-31T04:16:15;23.70;77.70
13928;DHT22;7036;50.834;4.718;2023-07-31T04:18:42;23.70;77.20
13928;DHT22;7036;50.834;4.718;2023-07-31T04:21:10;23.70;78.00
13928;DHT22;7036;50.834;4.718;2023-07-31T04:23:37;23.70;77.40
13928;DHT22;7036;50.834;4.718;2023-07-31T04:26:03;23.70;77.40
13928;DHT22;7036;50.834;4.718;2023-07-31T04:28:30;23.70;77.30
13928;DHT22;7036;50.834;4.718;2023-07-31T04:30:57;23.70;77.30
13928;DHT22;7036;50.834;4.718;2023-07-31T04:33:24;23.70;77.30
13928;DHT22;7036;50.834;4.718;2023-07-31T04:35:52;23.70;77.40
13928;DHT22;7036;50.834;4.718;2023-07-31T04:38:19;23.70;77.70
13928;DHT22;7036;50.834;4.718;2023-07-31T04:40:46;23.70;77.70
13928;DHT22;7036;50.834;4.718;2023-07-31T04:43:13;23.70;78.40
13928;DHT22;7036;50.834;4.718;2023-07-31T04:45:45;23.70;78.20
13928;DHT22;7036;50.834;4.718;2023-07-31T04:48:09;23.70;78.00
13928;DHT22;7036;50.834;4.718;2023-07-31T04:50:36;23.70;78.20
13928;DHT22;7036;50.834;4.718;2023-07-31T04:53:03;23.70;78.40
13928;DHT22;7036;50.834;4.718;2023-07-31T04:55:30;23.70;78.30
13928;DHT22;7036;50.834;4.718;2023-07-31T04:57:58;23.70;78.40
13928;DHT22;7036;50.834;4.718;2023-07-31T05:00:24;23.70;78.30
13928;DHT22;7036;50.834;4.718;2023-07-31T05:02:51;23.70;78.30
13928;DHT22;7036;50.834;4.718;2023-07-31T05:05:18;23.70;78.50
13928;DHT22;7036;50.834;4.718;2023-07-31T05:07:44;23.70;78.50
13928;DHT22;7036;50.834;4.718;2023-07-31T05:10:11;23.70;78.40
13928;DHT22;7036;50.834;4.718;2023-07-31T05:12:38;23.70;78.30
13928;DHT22;7036;50.834;4.718;2023-07-31T05:15:06;23.70;78.30
13928;DHT22;7036;50.834;4.718;2023-07-31T05:17:32;23.70;78.40
13928;DHT22;7036;50.834;4.718;2023-07-31T05:19:59;23.70;78.20
13928;DHT22;7036;50.834;4.718;2023-07-31T05:22:26;23.70;78.40
13928;DHT22;7036;50.834;4.718;2023-07-31T05:24:53;23.60;78.40
13928;DHT22;7036;50.834;4.718;2023-07-31T05:27:20;23.60;78.30
13928;DHT22;7036;50.834;4.718;2023-07-31T05:29:47;23.60;78.20
13928;DHT22;7036;50.834;4.718;2023-07-31T05:32:14;23.60;78.60
13928;DHT22;7036;50.834;4.718;2023-07-31T05:34:41;23.70;78.60
13928;DHT22;7036;50.834;4.718;2023-07-31T05:37:09;23.70;79.60
13928;DHT22;7036;50.834;4.718;2023-07-31T05:39:36;23.70;80.00
13928;DHT22;7036;50.834;4.718;2023-07-31T05:42:04;23.70;79.30
13928;DHT22;7036;50.834;4.718;2023-07-31T05:44:31;23.60;78.90
13928;DHT22;7036;50.834;4.718;2023-07-31T05:46:58;23.70;79.00
13928;DHT22;7036;50.834;4.718;2023-07-31T05:49:25;23.60;79.70
13928;DHT22;7036;50.834;4.718;2023-07-31T05:51:51;23.70;79.10
13928;DHT22;7036;50.834;4.718;2023-07-31T05:54:18;23.60;79.00
13928;DHT22;7036;50.834;4.718;2023-07-31T05:56:46;23.70;79.30
13928;DHT22;7036;50.834;4.718;2023-07-31T05:59:13;23.70;79.30
13928;DHT22;7036;50.834;4.718;2023-07-31T06:01:40;23.70;79.40
13928;DHT22;7036;50.834;4.718;2023-07-31T06:04:07;23.70;79.00
13928;DHT22;7036;50.834;4.718;2023-07-31T06:06:34;23.60;78.70
13928;DHT22;7036;50.834;4.718;2023-07-31T06:09:01;23.60;78.90
13928;DHT22;7036;50.834;4.718;2023-07-31T06:11:28;23.60;78.80
13928;DHT22;7036;50.834;4.718;2023-07-31T06:13:55;23.60;79.00
13928;DHT22;7036;50.834;4.718;2023-07-31T06:16:22;23.60;79.10
13928;DHT22;7036;50.834;4.718;2023-07-31T06:18:49;23.60;79.10
13928;DHT22;7036;50.834;4.718;2023-07-31T06:21:16;23.60;79.10
13928;DHT22;7036;50.834;4.718;2023-07-31T06:23:42;23.70;79.20
13928;DHT22;7036;50.834;4.718;2023-07-31T06:26:09;23.60;79.20
13928;DHT22;7036;50.834;4.718;2023-07-31T06:28:36;23.70;79.20
13928;DHT22;7036;50.834;4.718;2023-07-31T06:31:03;23.70;79.20
13928;DHT22;7036;50.834;4.718;2023-07-31T06:33:30;23.60;79.30
13928;DHT22;7036;50.834;4.718;2023-07-31T06:35:58;23.60;80.20
13928;DHT22;7036;50.834;4.718;2023-07-31T06:38:25;23.60;80.00
13928;DHT22;7036;50.834;4.718;2023-07-31T06:40:52;23.60;79.60
13928;DHT22;7036;50.834;4.718;2023-07-31T06:43:19;23.60;79.30
13928;DHT22;7036;50.834;4.718;2023-07-31T06:45:46;23.60;79.20
13928;DHT22;7036;50.834;4.718;2023-07-31T06:48:13;23.60;79.30
13928;DHT22;7036;50.834;4.718;2023-07-31T06:50:40;23.60;79.20
13928;DHT22;7036;50.834;4.718;2023-07-31T06:53:07;23.60;79.10
13928;DHT22;7036;50.834;4.718;2023-07-31T06:55:34;23.60;79.30
13928;DHT22;7036;50.834;4.718;2023-07-31T06:58:01;23.60;79.50
13928;DHT22;7036;50.834;4.718;2023-07-31T07:00:28;23.60;79.70
13928;DHT22;7036;50.834;4.718;2023-07-31T07:02:55;23.60;80.10
13928;DHT22;7036;50.834;4.718;2023-07-31T07:05:22;23.60;79.30
13928;DHT22;7036;50.834;4.718;2023-07-31T07:07:49;23.60;79.80
13928;DHT22;7036;50.834;4.718;2023-07-31T07:10:16;23.60;80.00
13928;DHT22;7036;50.834;4.718;2023-07-31T07:12:44;23.60;80.70
13928;DHT22;7036;50.834;4.718;2023-07-31T07:15:11;23.60;80.10
13928;DHT22;7036;50.834;4.718;2023-07-31T07:17:38;23.60;79.90
13928;DHT22;7036;50.834;4.718;2023-07-31T07:20:05;23.60;79.70
13928;DHT22;7036;50.834;4.718;2023-07-31T07:22:32;23.60;80.50
13928;DHT22;7036;50.834;4.718;2023-07-31T07:24:59;23.60;79.80
13928;DHT22;7036;50.834;4.718;2023-07-31T07:27:27;23.60;79.40
13928;DHT22;7036;50.834;4.718;2023-07-31T07:29:53;23.60;79.40
13928;DHT22;7036;50.834;4.718;2023-07-31T07:32:20;23.60;79.40
13928;DHT22;7036;50.834;4.718;2023-07-31T07:34:47;23.60;80.10
13928;DHT22;7036;50.834;4.718;2023-07-31T07:37:14;23.60;79.20
13928;DHT22;7036;50.834;4.718;2023-07-31T07:39:41;23.60;79.30
13928;DHT22;7036;50.834;4.718;2023-07-31T07:42:08;23.60;79.30
13928;DHT22;7036;50.834;4.718;2023-07-31T07:44:35;23.60;79.60
13928;DHT22;7036;50.834;4.718;2023-07-31T07:47:02;23.60;79.60
13928;DHT22;7036;50.834;4.718;2023-07-31T07:49:29;23.60;79.60
13928;DHT22;7036;50.834;4.718;2023-07-31T07:51:56;23.60;79.90
13928;DHT22;7036;50.834;4.718;2023-07-31T07:54:23;23.60;79.90
13928;DHT22;7036;50.834;4.718;2023-07-31T07:56:50;23.60;80.00
13928;DHT22;7036;50.834;4.718;2023-07-31T07:59:17;23.60;80.00
13928;DHT22;7036;50.834;4.718;2023-07-31T08:01:44;23.60;80.00
13928;DHT22;7036;50.834;4.718;2023-07-31T08:04:11;23.60;80.00
13928;DHT22;7036;50.834;4.718;2023-07-31T08:06:38;23.60;80.20
13928;DHT22;7036;50.834;4.718;2023-07-31T08:09:06;23.60;80.90
13928;DHT22;7036;50.834;4.718;2023-07-31T08:11:33;23.60;80.30
13928;DHT22;7036;50.834;4.718;2023-07-31T08:13:59;23.70;80.50
13928;DHT22;7036;50.834;4.718;2023-07-31T08:16:26;23.70;80.40
13928;DHT22;7036;50.834;4.718;2023-07-31T08:18:53;23.70;80.60
13928;DHT22;7036;50.834;4.718;2023-07-31T08:21:21;23.70;80.60
13928;DHT22;7036;50.834;4.718;2023-07-31T08:23:47;23.70;80.50
13928;DHT22;7036;50.834;4.718;2023-07-31T08:26:18;23.70;80.70
13928;DHT22;7036;50.834;4.718;2023-07-31T08:28:44;23.70;81.00
13928;DHT22;7036;50.834;4.718;2023-07-31T08:31:11;23.70;80.70
13928;DHT22;7036;50.834;4.718;2023-07-31T08:33:38;23.70;81.00
13928;DHT22;7036;50.834;4.718;2023-07-31T08:36:05;23.70;80.80
13928;DHT22;7036;50.834;4.718;2023-07-31T08:38:33;23.70;80.80
13928;DHT22;7036;50.834;4.718;2023-07-31T08:40:59;23.70;80.60
13928;DHT22;7036;50.834;4.718;2023-07-31T08:43:27;23.70;80.80
13928;DHT22;7036;50.834;4.718;2023-07-31T08:45:53;23.70;80.80
13928;DHT22;7036;50.834;4.718;2023-07-31T08:48:23;23.70;80.90
13928;DHT22;7036;50.834;4.718;2023-07-31T08:50:51;23.80;80.90
13928;DHT22;7036;50.834;4.718;2023-07-31T08:53:17;23.80;80.60
13928;DHT22;7036;50.834;4.718;2023-07-31T08:55:44;23.70;80.60
13928;DHT22;7036;50.834;4.718;2023-07-31T08:58:12;23.70;80.70
13928;DHT22;7036;50.834;4.718;2023-07-31T09:00:38;23.80;81.00
13928;DHT22;7036;50.834;4.718;2023-07-31T09:03:08;23.70;80.70
13928;DHT22;7036;50.834;4.718;2023-07-31T09:05:35;23.70;80.90
13928;DHT22;7036;50.834;4.718;2023-07-31T09:08:02;23.80;81.10
13928;DHT22;7036;50.834;4.718;2023-07-31T09:10:29;23.70;81.40
13928;DHT22;7036;50.834;4.718;2023-07-31T09:12:56;23.80;81.60
13928;DHT22;7036;50.834;4.718;2023-07-31T09:15:23;23.70;81.30
13928;DHT22;7036;50.834;4.718;2023-07-31T09:17:54;23.80;81.30
13928;DHT22;7036;50.834;4.718;2023-07-31T09:20:18;23.80;80.50
13928;DHT22;7036;50.834;4.718;2023-07-31T09:22:44;23.80;80.60
13928;DHT22;7036;50.834;4.718;2023-07-31T09:25:21;23.90;80.60
13928;DHT22;7036;50.834;4.718;2023-07-31T09:27:50;23.80;81.40
13928;DHT22;7036;50.834;4.718;2023-07-31T09:30:17;24.00;80.90
13928;DHT22;7036;50.834;4.718;2023-07-31T09:32:44;23.80;80.80
13928;DHT22;7036;50.834;4.718;2023-07-31T09:35:20;23.80;81.10
13928;DHT22;7036;50.834;4.718;2023-07-31T09:37:52;23.80;80.90
13928;DHT22;7036;50.834;4.718;2023-07-31T09:40:28;23.80;81.00
13928;DHT22;7036;50.834;4.718;2023-07-31T09:42:52;23.90;81.10
13928;DHT22;7036;50.834;4.718;2023-07-31T09:45:19;23.90;81.10
13928;DHT22;7036;50.834;4.718;2023-07-31T09:47:49;23.90;81.10
13928;DHT22;7036;50.834;4.718;2023-07-31T09:50:15;23.90;81.30
13928;DHT22;7036;50.834;4.718;2023-07-31T09:52:45;23.90;81.30
13928;DHT22;7036;50.834;4.718;2023-07-31T09:55:13;23.90;81.80
13928;DHT22;7036;50.834;4.718;2023-07-31T09:57:44;23.90;81.90
13928;DHT22;7036;50.834;4.718;2023-07-31T10:00:09;23.90;81.80
13928;DHT22;7036;50.834;4.718;2023-07-31T10:02:36;23.90;81.60
13928;DHT22;7036;50.834;4.718;2023-07-31T10:05:04;23.90;81.80
13928;DHT22;7036;50.834;4.718;2023-07-31T10:07:30;23.90;81.60
13928;DHT22;7036;50.834;4.718;2023-07-31T10:09:57;23.90;81.60
13928;DHT22;7036;50.834;4.718;2023-07-31T10:12:26;23.90;81.50
13928;DHT22;7036;50.834;4.718;2023-07-31T10:14:51;23.90;81.70
13928;DHT22;7036;50.834;4.718;2023-07-31T10:17:18;23.90;81.60
13928;DHT22;7036;50.834;4.718;2023-07-31T10:19:45;23.90;81.80
13928;DHT22;7036;50.834;4.718;2023-07-31T10:22:12;23.90;81.60
13928;DHT22;7036;50.834;4.718;2023-07-31T10:24:39;23.90;81.70
13928;DHT22;7036;50.834;4.718;2023-07-31T10:27:06;23.90;81.50
13928;DHT22;7036;50.834;4.718;2023-07-31T10:29:33;23.90;81.60
13928;DHT22;7036;50.834;4.718;2023-07-31T10:32:00;23.90;81.50
13928;DHT22;7036;50.834;4.718;2023-07-31T10:34:27;23.90;83.80
13928;DHT22;7036;50.834;4.718;2023-07-31T10:39:39;24.00;85.00
13928;DHT22;7036;50.834;4.718;2023-07-31T10:42:10;23.90;85.00
13928;DHT22;7036;50.834;4.718;2023-07-31T10:44:36;24.00;85.10
13928;DHT22;7036;50.834;4.718;2023-07-31T10:47:03;24.00;84.80
13928;DHT22;7036;50.834;4.718;2023-07-31T10:49:30;24.00;84.80
13928;DHT22;7036;50.834;4.718;2023-07-31T10:51:57;24.00;84.60
13928;DHT22;7036;50.834;4.718;2023-07-31T10:54:24;24.00;84.40
13928;DHT22;7036;50.834;4.718;2023-07-31T10:56:51;24.00;84.30
13928;DHT22;7036;50.834;4.718;2023-07-31T10:59:18;24.00;84.40
13928;DHT22;7036;50.834;4.718;2023-07-31T11:01:54;24.00;84.40
13928;DHT22;7036;50.834;4.718;2023-07-31T11:04:26;24.00;84.20
13928;DHT22;7036;50.834;4.718;2023-07-31T11:06:56;24.00;84.00
13928;DHT22;7036;50.834;4.718;2023-07-31T11:09:22;24.00;84.00
13928;DHT22;7036;50.834;4.718;2023-07-31T11:11:49;24.00;84.10
13928;DHT22;7036;50.834;4.718;2023-07-31T11:14:16;24.00;84.40
13928;DHT22;7036;50.834;4.718;2023-07-31T11:16:43;24.00;84.30
13928;DHT22;7036;50.834;4.718;2023-07-31T11:19:10;24.00;84.50
13928;DHT22;7036;50.834;4.718;2023-07-31T11:21:37;24.00;84.20
13928;DHT22;7036;50.834;4.718;2023-07-31T11:24:04;24.00;84.20
13928;DHT22;7036;50.834;4.718;2023-07-31T11:26:31;24.00;84.20
13928;DHT22;7036;50.834;4.718;2023-07-31T11:28:58;24.00;84.30
13928;DHT22;7036;50.834;4.718;2023-07-31T11:31:25;24.00;85.00
13928;DHT22;7036;50.834;4.718;2023-07-31T11:34:03;24.00;85.90
13928;DHT22;7036;50.834;4.718;2023-07-31T11:36:20;24.00;87.60
13928;DHT22;7036;50.834;4.718;2023-07-31T11:38:47;24.00;88.60
13928;DHT22;7036;50.834;4.718;2023-07-31T11:41:16;24.00;88.30
13928;DHT22;7036;50.834;4.718;2023-07-31T11:43:43;24.00;89.60
13928;DHT22;7036;50.834;4.718;2023-07-31T11:46:09;24.00;90.00
13928;DHT22;7036;50.834;4.718;2023-07-31T11:48:37;24.00;88.80
13928;DHT22;7036;50.834;4.718;2023-07-31T11:51:04;24.00;88.40
13928;DHT22;7036;50.834;4.718;2023-07-31T11:53:43;24.00;87.80
13928;DHT22;7036;50.834;4.718;2023-07-31T11:56:10;24.00;87.10
13928;DHT22;7036;50.834;4.718;2023-07-31T11:58:36;24.00;85.20
13928;DHT22;7036;50.834;4.718;2023-07-31T12:01:03;24.00;84.30
13928;DHT22;7036;50.834;4.718;2023-07-31T12:03:30;24.00;84.00
13928;DHT22;7036;50.834;4.718;2023-07-31T12:05:57;24.10;83.70
13928;DHT22;7036;50.834;4.718;2023-07-31T12:08:24;24.10;83.80
13928;DHT22;7036;50.834;4.718;2023-07-31T12:10:51;24.10;83.40
13928;DHT22;7036;50.834;4.718;2023-07-31T12:13:24;24.10;82.90
13928;DHT22;7036;50.834;4.718;2023-07-31T12:15:58;24.00;84.00
13928;DHT22;7036;50.834;4.718;2023-07-31T12:18:24;24.00;83.20
13928;DHT22;7036;50.834;4.718;2023-07-31T12:20:59;24.00;83.50
13928;DHT22;7036;50.834;4.718;2023-07-31T12:23:29;24.00;83.60
13928;DHT22;7036;50.834;4.718;2023-07-31T12:26:08;24.00;83.30
13928;DHT22;7036;50.834;4.718;2023-07-31T12:28:47;24.00;83.70
13928;DHT22;7036;50.834;4.718;2023-07-31T12:31:16;24.10;84.10
13928;DHT22;7036;50.834;4.718;2023-07-31T12:33:43;24.10;85.40
13928;DHT22;7036;50.834;4.718;2023-07-31T12:36:10;24.10;84.90
13928;DHT22;7036;50.834;4.718;2023-07-31T12:38:36;24.10;85.00
13928;DHT22;7036;50.834;4.718;2023-07-31T12:41:03;24.10;84.70
13928;DHT22;7036;50.834;4.718;2023-07-31T12:43:30;24.10;84.80
13928;DHT22;7036;50.834;4.718;2023-07-31T12:45:57;24.10;84.70
13928;DHT22;7036;50.834;4.718;2023-07-31T12:48:25;24.10;85.50
13928;DHT22;7036;50.834;4.718;2023-07-31T12:50:52;24.10;84.60
13928;DHT22;7036;50.834;4.718;2023-07-31T12:53:19;24.20;84.30
13928;DHT22;7036;50.834;4.718;2023-07-31T12:55:47;24.10;84.00
13928;DHT22;7036;50.834;4.718;2023-07-31T12:58:13;24.10;84.20
13928;DHT22;7036;50.834;4.718;2023-07-31T13:00:40;24.10;84.00
13928;DHT22;7036;50.834;4.718;2023-07-31T13:03:07;24.10;84.10
13928;DHT22;7036;50.834;4.718;2023-07-31T13:05:34;24.00;84.10
13928;DHT22;7036;50.834;4.718;2023-07-31T13:08:01;24.10;84.40
13928;DHT22;7036;50.834;4.718;2023-07-31T13:10:28;24.10;84.00
13928;DHT22;7036;50.834;4.718;2023-07-31T13:12:55;24.10;84.00
13928;DHT22;7036;50.834;4.718;2023-07-31T13:15:22;24.10;84.00
13928;DHT22;7036;50.834;4.718;2023-07-31T13:17:49;24.10;83.80
13928;DHT22;7036;50.834;4.718;2023-07-31T13:20:15;24.10;83.80
13928;DHT22;7036;50.834;4.718;2023-07-31T13:22:42;24.10;83.60
13928;DHT22;7036;50.834;4.718;2023-07-31T13:25:10;24.10;83.80
13928;DHT22;7036;50.834;4.718;2023-07-31T13:27:37;24.10;82.50
13928;DHT22;7036;50.834;4.718;2023-07-31T13:30:04;24.10;82.10
13928;DHT22;7036;50.834;4.718;2023-07-31T13:32:32;24.10;83.10
13928;DHT22;7036;50.834;4.718;2023-07-31T13:34:58;24.10;82.00
13928;DHT22;7036;50.834;4.718;2023-07-31T13:37:25;24.10;82.00
13928;DHT22;7036;50.834;4.718;2023-07-31T13:39:52;24.10;81.90
13928;DHT22;7036;50.834;4.718;2023-07-31T13:42:19;24.10;82.10
13928;DHT22;7036;50.834;4.718;2023-07-31T13:44:46;24.20;81.80
13928;DHT22;7036;50.834;4.718;2023-07-31T13:47:13;24.20;81.60
13928;DHT22;7036;50.834;4.718;2023-07-31T13:49:40;24.10;81.50
13928;DHT22;7036;50.834;4.718;2023-07-31T13:52:07;24.10;82.00
13928;DHT22;7036;50.834;4.718;2023-07-31T13:54:34;24.20;81.80
13928;DHT22;7036;50.834;4.718;2023-07-31T13:57:02;24.10;81.90
13928;DHT22;7036;50.834;4.718;2023-07-31T13:59:28;24.10;81.70
13928;DHT22;7036;50.834;4.718;2023-07-31T14:01:56;24.10;83.20
13928;DHT22;7036;50.834;4.718;2023-07-31T14:04:23;24.10;82.50
13928;DHT22;7036;50.834;4.718;2023-07-31T14:06:50;24.10;82.20
13928;DHT22;7036;50.834;4.718;2023-07-31T14:09:17;24.10;82.20
13928;DHT22;7036;50.834;4.718;2023-07-31T14:11:44;24.10;82.30
13928;DHT22;7036;50.834;4.718;2023-07-31T14:14:11;24.10;82.20
13928;DHT22;7036;50.834;4.718;2023-07-31T14:16:38;24.10;82.30
13928;DHT22;7036;50.834;4.718;2023-07-31T14:19:05;24.10;82.30
13928;DHT22;7036;50.834;4.718;2023-07-31T14:21:32;24.10;82.20
13928;DHT22;7036;50.834;4.718;2023-07-31T14:23:59;24.10;82.40
13928;DHT22;7036;50.834;4.718;2023-07-31T14:26:26;24.10;82.20
13928;DHT22;7036;50.834;4.718;2023-07-31T14:28:53;24.10;82.20
13928;DHT22;7036;50.834;4.718;2023-07-31T14:31:20;24.10;82.10
13928;DHT22;7036;50.834;4.718;2023-07-31T14:33:47;24.10;82.00
13928;DHT22;7036;50.834;4.718;2023-07-31T14:36:14;24.10;82.10
13928;DHT22;7036;50.834;4.718;2023-07-31T14:38:41;24.10;82.10
13928;DHT22;7036;50.834;4.718;2023-07-31T14:41:08;24.10;82.00
13928;DHT22;7036;50.834;4.718;2023-07-31T14:43:34;24.10;82.00
13928;DHT22;7036;50.834;4.718;2023-07-31T14:46:01;24.10;82.00
13928;DHT22;7036;50.834;4.718;2023-07-31T14:48:28;24.10;81.90
13928;DHT22;7036;50.834;4.718;2023-07-31T14:50:55;24.10;82.00
13928;DHT22;7036;50.834;4.718;2023-07-31T14:53:22;24.10;82.00
13928;DHT22;7036;50.834;4.718;2023-07-31T14:55:49;24.10;82.00
13928;DHT22;7036;50.834;4.718;2023-07-31T14:58:16;24.10;82.00
13928;DHT22;7036;50.834;4.718;2023-07-31T15:00:43;24.10;82.00
13928;DHT22;7036;50.834;4.718;2023-07-31T15:03:11;24.10;82.00
13928;DHT22;7036;50.834;4.718;2023-07-31T15:05:38;24.10;81.90
13928;DHT22;7036;50.834;4.718;2023-07-31T15:08:05;24.10;81.90
13928;DHT22;7036;50.834;4.718;2023-07-31T15:10:32;24.10;81.80
13928;DHT22;7036;50.834;4.718;2023-07-31T15:12:59;24.10;81.70
13928;DHT22;7036;50.834;4.718;2023-07-31T15:15:26;24.10;81.70
13928;DHT22;7036;50.834;4.718;2023-07-31T15:17:53;24.10;81.50
13928;DHT22;7036;50.834;4.718;2023-07-31T15:20:19;24.10;81.40
13928;DHT22;7036;50.834;4.718;2023-07-31T15:22:46;24.10;81.40
13928;DHT22;7036;50.834;4.718;2023-07-31T15:25:13;24.00;81.30
13928;DHT22;7036;50.834;4.718;2023-07-31T15:27:40;24.10;81.30
13928;DHT22;7036;50.834;4.718;2023-07-31T15:30:08;24.10;81.30
13928;DHT22;7036;50.834;4.718;2023-07-31T15:32:36;24.10;82.10
13928;DHT22;7036;50.834;4.718;2023-07-31T15:35:02;24.10;81.60
13928;DHT22;7036;50.834;4.718;2023-07-31T15:37:28;24.10;81.60
13928;DHT22;7036;50.834;4.718;2023-07-31T15:39:55;24.10;81.50
13928;DHT22;7036;50.834;4.718;2023-07-31T15:42:24;24.10;81.50
13928;DHT22;7036;50.834;4.718;2023-07-31T15:44:50;24.10;81.60
13928;DHT22;7036;50.834;4.718;2023-07-31T15:47:17;24.10;81.80
13928;DHT22;7036;50.834;4.718;2023-07-31T15:49:44;24.10;81.70
13928;DHT22;7036;50.834;4.718;2023-07-31T15:52:12;24.10;82.80